NV63 weather

Claude I. Howard Heliport
Las Vegas, Nevada, United States

Public forecast

Using degrees Fahrenheit for public forecast. Weather courtesy of forecast.io.

Closest aviation weather report (METAR) to Claude I. Howard Heliport

Closest report is McCarran International Airport, 1.2 nm (2.2 km) E. Retrieved 2019/10/22 14:56 UTC (32 minutes ago):

KLAS 221456Z 28004KT 10SM CLR 16/M03 A3025 RMK AO2 SLP230 T01611033 51010

Closest aviation forecast (TAF) to Claude I. Howard Heliport

Closest forecast is McCarran International Airport, 1.2 nm (2.2 km) E. Retrieved 2019/10/22 12:22 UTC (3 hours ago):

TAF KLAS 221120Z 2212/2318 VRB05KT P6SM SKC FM222000 07006KT P6SM SKC FM230300 21006KT P6SM SKC